createdAt,value
2022-10-21T00:01:40.479Z,99520.36
2022-10-21T00:04:52.373Z,99519.38
2022-10-21T00:08:04.230Z,99523.42
2022-10-21T00:11:16.804Z,99519.94
2022-10-21T00:14:28.603Z,99520.80
2022-10-21T00:17:43.831Z,99523.67
2022-10-21T00:20:55.584Z,99509.02
2022-10-21T00:24:07.518Z,99514.34
2022-10-21T00:27:19.231Z,99512.50
2022-10-21T00:30:30.871Z,99500.55
2022-10-21T00:33:42.775Z,99493.91
2022-10-21T00:36:54.760Z,99493.75
2022-10-21T00:40:06.770Z,99475.09
2022-10-21T00:43:18.647Z,99468.13
2022-10-21T00:46:39.751Z,99473.53
2022-10-21T00:49:55.575Z,99466.45
2022-10-21T00:53:09.616Z,99462.13
2022-10-21T00:56:27.521Z,99454.27
2022-10-21T00:59:45.236Z,99439.45
2022-10-21T01:02:57.338Z,99427.90
2022-10-21T01:06:13.819Z,99435.14
2022-10-21T01:09:27.007Z,99437.98
2022-10-21T01:12:46.312Z,99448.00
2022-10-21T01:16:05.186Z,99439.84
2022-10-21T01:19:36.029Z,99433.83
2022-10-21T01:23:20.685Z,99424.59
2022-10-21T01:27:18.847Z,99410.89
2022-10-21T01:30:45.024Z,99416.73
2022-10-21T01:34:03.040Z,99429.34
2022-10-21T01:37:20.983Z,99437.20
2022-10-21T01:40:39.065Z,99430.60
2022-10-21T01:43:59.616Z,99432.25
2022-10-21T01:47:16.110Z,99433.60
2022-10-21T01:50:31.995Z,99428.94
2022-10-21T01:53:48.719Z,99424.77
2022-10-21T01:57:03.406Z,99433.77
2022-10-21T02:00:17.650Z,99425.70
2022-10-21T02:03:34.506Z,99431.84
2022-10-21T02:06:46.414Z,99417.97
2022-10-21T02:09:58.070Z,99420.09
2022-10-21T02:13:13.918Z,99428.02
2022-10-21T02:16:28.538Z,99433.84
2022-10-21T02:19:40.767Z,99426.27
2022-10-21T02:22:54.641Z,99420.67
2022-10-21T02:26:06.704Z,99429.78
2022-10-21T02:29:19.589Z,99435.02
2022-10-21T02:32:39.390Z,99436.03
2022-10-21T02:35:58.084Z,99419.59
2022-10-21T02:39:15.682Z,99410.97
2022-10-21T02:42:31.416Z,99404.33
2022-10-21T02:45:44.825Z,99410.19
2022-10-21T02:48:57.204Z,99408.30
2022-10-21T02:52:08.991Z,99398.52
2022-10-21T02:55:20.836Z,99393.36
2022-10-21T02:58:32.714Z,99379.38
2022-10-21T03:01:44.453Z,99382.70
2022-10-21T03:04:56.477Z,99382.27
2022-10-21T03:08:08.699Z,99386.44
2022-10-21T03:11:20.768Z,99384.67
2022-10-21T03:14:32.535Z,99375.06
2022-10-21T03:17:44.353Z,99380.70
2022-10-21T03:20:58.505Z,99380.42
2022-10-21T03:24:19.692Z,99372.73
2022-10-21T03:27:25.142Z,99371.95
2022-10-21T03:30:36.976Z,99366.06
2022-10-21T03:33:48.803Z,99372.31
2022-10-21T03:37:00.427Z,99362.61
2022-10-21T03:40:14.631Z,99358.36
2022-10-21T03:43:26.369Z,99362.03
2022-10-21T03:46:38.037Z,99376.55
2022-10-21T03:49:49.672Z,99368.04
2022-10-21T03:53:10.094Z,99357.42
2022-10-21T03:56:17.455Z,99359.06
2022-10-21T03:59:29.223Z,99354.46
2022-10-21T04:02:41.011Z,99351.06
2022-10-21T04:05:53.386Z,99352.39
2022-10-21T04:09:05.240Z,99359.80
2022-10-21T04:12:16.967Z,99349.42
2022-10-21T04:15:28.883Z,99330.46
2022-10-21T04:18:40.593Z,99325.11
2022-10-21T04:21:52.746Z,99320.79
2022-10-21T04:25:05.001Z,99312.75
2022-10-21T04:28:17.178Z,99309.00
2022-10-21T04:31:32.309Z,99306.63
2022-10-21T04:34:43.209Z,99302.09
2022-10-21T04:37:54.944Z,99293.04
2022-10-21T04:41:08.565Z,99298.42
2022-10-21T04:44:20.374Z,99305.21
2022-10-21T04:47:32.340Z,99300.38
2022-10-21T04:50:44.113Z,99293.04
2022-10-21T04:53:55.954Z,99302.09
2022-10-21T04:57:07.820Z,99301.66
2022-10-21T05:00:21.414Z,99301.55
2022-10-21T05:03:33.137Z,99302.88
2022-10-21T05:06:44.858Z,99311.06
2022-10-21T05:09:56.623Z,99302.40
2022-10-21T05:13:08.396Z,99298.56
2022-10-21T05:16:20.272Z,99273.48
2022-10-21T05:19:32.631Z,99277.65
2022-10-21T05:22:44.519Z,99290.72
2022-10-21T05:25:57.081Z,99291.20
2022-10-21T05:29:08.996Z,99297.17
2022-10-21T05:32:20.794Z,99290.64
2022-10-21T05:35:32.719Z,99306.48
2022-10-21T05:38:44.661Z,99305.06
2022-10-21T05:41:56.892Z,99318.63
2022-10-21T05:45:10.413Z,99306.47
2022-10-21T05:48:22.296Z,99304.30
2022-10-21T05:51:34.104Z,99309.03
2022-10-21T05:54:45.809Z,99310.88
2022-10-21T05:57:59.329Z,99311.20
2022-10-21T06:01:11.773Z,99326.81
2022-10-21T06:04:24.930Z,99323.13
2022-10-21T06:07:37.101Z,99308.69
2022-10-21T06:10:49.250Z,99305.78
2022-10-21T06:14:00.979Z,99295.30
2022-10-21T06:17:12.985Z,99287.14
2022-10-21T06:20:25.208Z,99275.81
2022-10-21T06:23:37.627Z,99270.36
2022-10-21T06:26:49.496Z,99271.42
2022-10-21T06:30:01.516Z,99298.93
2022-10-21T06:33:13.426Z,99316.80
2022-10-21T06:36:25.295Z,99336.37
2022-10-21T06:39:37.212Z,99342.61
2022-10-21T06:42:49.055Z,99337.23
2022-10-21T06:46:06.986Z,99344.00
2022-10-21T06:49:18.734Z,99339.95
2022-10-21T06:52:30.900Z,99337.05
2022-10-21T06:55:42.840Z,99337.59
2022-10-21T06:58:56.445Z,99328.59
2022-10-21T07:02:08.193Z,99320.00
2022-10-21T07:05:20.236Z,99325.88
2022-10-21T07:08:46.625Z,99321.57
2022-10-21T07:11:47.369Z,99328.31
2022-10-21T07:14:59.864Z,99326.98
2022-10-21T07:18:11.783Z,99326.31
2022-10-21T07:21:26.239Z,99334.51
2022-10-21T07:24:38.225Z,99340.02
2022-10-21T07:27:50.367Z,99338.09
2022-10-21T07:31:02.439Z,99342.02
2022-10-21T07:34:17.141Z,99325.05
2022-10-21T07:37:29.824Z,99322.78
2022-10-21T07:40:47.153Z,99312.02
2022-10-21T07:44:00.347Z,99298.17
2022-10-21T07:47:12.232Z,99297.67
2022-10-21T07:50:24.584Z,99301.27
2022-10-21T07:53:36.408Z,99290.13
2022-10-21T07:56:52.593Z,99292.95
2022-10-21T08:00:04.290Z,99287.59
2022-10-21T08:03:18.078Z,99279.17
2022-10-21T08:06:32.099Z,99268.57
2022-10-21T08:09:43.893Z,99266.19
2022-10-21T08:12:55.632Z,99248.97
2022-10-21T08:16:08.782Z,99237.66
2022-10-21T08:19:29.670Z,99231.89
2022-10-21T08:22:41.710Z,99226.33
2022-10-21T08:25:57.718Z,99221.64
2022-10-21T08:29:11.397Z,99213.06
2022-10-21T08:32:23.083Z,99206.84
2022-10-21T08:35:35.521Z,99211.25
2022-10-21T08:38:47.507Z,99208.58
2022-10-21T08:42:20.306Z,99204.27
2022-10-21T08:45:39.058Z,99179.41
2022-10-21T08:48:55.543Z,99173.92
2022-10-21T08:52:13.450Z,99168.59
2022-10-21T08:55:31.277Z,99167.49
2022-10-21T08:58:43.118Z,99178.67
2022-10-21T09:02:01.532Z,99168.67
2022-10-21T09:05:37.036Z,99170.95
2022-10-21T09:08:58.833Z,99158.20
2022-10-21T09:12:17.485Z,99162.23
2022-10-21T09:15:34.287Z,99159.51
2022-10-21T09:18:55.968Z,99151.42
2022-10-21T09:22:34.809Z,99157.92
2022-10-21T09:25:38.803Z,99153.72
2022-10-21T09:28:51.550Z,99146.63
2022-10-21T09:32:08.775Z,99146.39
2022-10-21T09:35:33.485Z,99156.34
2022-10-21T09:38:51.116Z,99141.31
2022-10-21T09:42:11.515Z,99127.87
2022-10-21T09:45:29.129Z,99131.45
2022-10-21T09:52:04.699Z,99145.91
2022-10-21T09:55:21.676Z,99136.53
2022-10-21T09:58:37.046Z,99131.02
2022-10-21T10:01:50.796Z,99113.31
2022-10-21T10:05:05.353Z,99116.56
2022-10-21T10:08:42.922Z,99106.20
2022-10-21T10:12:04.364Z,99091.98
2022-10-21T10:15:38.924Z,99083.77
2022-10-21T10:18:51.663Z,99062.48
2022-10-21T10:22:19.308Z,99047.70
2022-10-21T10:25:32.040Z,99039.91
2022-10-21T10:28:44.585Z,99037.70
2022-10-21T10:32:00.906Z,99040.21
2022-10-21T10:35:27.883Z,99022.58
2022-10-21T10:38:45.221Z,99022.58
2022-10-21T10:41:59.460Z,99022.46
2022-10-21T10:45:22.148Z,99020.96
2022-10-21T10:48:40.653Z,99012.55
2022-10-21T10:51:54.066Z,99009.19
2022-10-21T10:55:25.791Z,99004.88
2022-10-21T10:58:42.377Z,99002.78
2022-10-21T11:02:00.959Z,98985.30
2022-10-21T11:05:25.659Z,98969.23
2022-10-21T11:08:43.397Z,98970.78
2022-10-21T11:11:58.099Z,98971.63
2022-10-21T11:15:16.582Z,98969.82
2022-10-21T11:18:35.551Z,98960.45
2022-10-21T11:21:52.909Z,98944.92
2022-10-21T11:25:13.158Z,98940.17
2022-10-21T11:28:30.750Z,98931.95
2022-10-21T11:32:10.310Z,98923.55
2022-10-21T11:35:24.410Z,98917.69
2022-10-21T11:38:52.818Z,98912.38
2022-10-21T11:42:12.721Z,98904.83
2022-10-21T11:45:41.991Z,98889.75
2022-10-21T11:49:20.691Z,98890.05
2022-10-21T11:52:44.906Z,98887.82
2022-10-21T11:56:04.082Z,98886.55
2022-10-21T11:59:30.509Z,98885.98
2022-10-21T12:02:51.071Z,98889.18
2022-10-21T12:06:09.529Z,98881.73
2022-10-21T12:09:26.602Z,98869.27
2022-10-21T12:12:39.500Z,98858.75
2022-10-21T12:15:55.391Z,98854.13
2022-10-21T12:19:10.360Z,98849.08
2022-10-21T12:22:22.998Z,98839.83
2022-10-21T12:25:44.956Z,98833.97
2022-10-21T12:29:05.040Z,98834.20
2022-10-21T12:32:23.428Z,98822.02
2022-10-21T12:35:48.164Z,98819.84
2022-10-21T12:39:01.872Z,98821.59
2022-10-21T12:42:20.154Z,98810.83
2022-10-21T12:45:38.319Z,98798.00
2022-10-21T12:48:54.448Z,98803.41
2022-10-21T12:52:15.911Z,98801.80
2022-10-21T12:55:33.769Z,98801.02
2022-10-21T12:58:50.145Z,98793.72
2022-10-21T13:02:32.411Z,98792.59
2022-10-21T13:06:16.179Z,98779.27
2022-10-21T13:09:50.891Z,98784.66
2022-10-21T13:13:38.429Z,98794.09
2022-10-21T13:16:50.794Z,98798.47
2022-10-21T13:20:22.438Z,98789.56
2022-10-21T13:23:44.537Z,98785.11
2022-10-21T13:27:00.181Z,98789.68
2022-10-21T13:30:29.060Z,98783.55
2022-10-21T13:33:42.758Z,98784.75
2022-10-21T13:36:55.669Z,98765.48
2022-10-21T13:40:14.705Z,98766.16
2022-10-21T13:43:32.592Z,98769.51
2022-10-21T13:46:47.027Z,98753.51
2022-10-21T13:50:03.598Z,98748.17
2022-10-21T13:53:36.836Z,98749.16
2022-10-21T13:56:49.861Z,98750.84
2022-10-21T14:00:12.333Z,98754.66
2022-10-21T14:03:28.075Z,98755.80
2022-10-21T14:06:43.888Z,98745.13
2022-10-21T14:09:59.315Z,98746.28
2022-10-21T14:13:12.032Z,98759.91
2022-10-21T14:16:33.095Z,98752.92
2022-10-21T14:19:46.773Z,98763.05
2022-10-21T14:23:00.125Z,98759.02
2022-10-21T14:26:15.484Z,98754.19
2022-10-21T14:29:29.870Z,98746.65
2022-10-21T14:32:44.189Z,98757.94
2022-10-21T14:36:14.857Z,98766.27
2022-10-21T14:39:27.547Z,98763.22
2022-10-21T14:42:40.923Z,98760.48
2022-10-21T14:45:57.062Z,98749.64
2022-10-21T14:49:09.090Z,98748.41
2022-10-21T14:52:28.356Z,98755.37
2022-10-21T14:55:40.272Z,98761.08
2022-10-21T14:58:59.226Z,98765.52
2022-10-21T15:02:19.193Z,98756.62
2022-10-21T15:05:48.608Z,98753.72
2022-10-21T15:09:26.171Z,98750.98
2022-10-21T15:12:47.160Z,98760.17
2022-10-21T15:16:00.515Z,98761.78
2022-10-21T15:19:20.864Z,98768.27
2022-10-21T15:22:38.185Z,98771.97
2022-10-21T15:25:50.202Z,98768.08
2022-10-21T15:29:03.020Z,98768.67
2022-10-21T15:32:19.115Z,98782.72
2022-10-21T15:35:31.192Z,98779.11
2022-10-21T15:38:45.623Z,98781.39
2022-10-21T15:41:59.045Z,98786.29
2022-10-21T15:45:18.694Z,98784.78
2022-10-21T15:48:30.679Z,98797.50
2022-10-21T15:51:43.504Z,98804.09
2022-10-21T15:54:55.397Z,98800.89
2022-10-21T15:58:07.235Z,98799.08
2022-10-21T16:01:21.734Z,98809.71
2022-10-21T16:04:33.865Z,98806.36
2022-10-21T16:07:48.004Z,98809.28
2022-10-21T16:10:59.916Z,98813.64
2022-10-21T16:14:14.561Z,98818.95
2022-10-21T16:17:28.665Z,98820.77
2022-10-21T16:20:40.476Z,98827.89
2022-10-21T16:23:53.255Z,98835.74
2022-10-21T16:27:04.988Z,98829.73
2022-10-21T16:30:25.884Z,98834.20
2022-10-21T16:33:37.594Z,98840.48
2022-10-21T16:36:49.712Z,98825.39
2022-10-21T16:40:02.261Z,98835.16
2022-10-21T16:43:16.126Z,98834.63
2022-10-21T16:46:33.251Z,98832.97
2022-10-21T16:49:44.059Z,98828.61
2022-10-21T16:52:57.014Z,98831.27
2022-10-21T16:56:09.067Z,98835.77
2022-10-21T16:59:20.984Z,98834.08
2022-10-21T17:02:36.796Z,98845.02
2022-10-21T17:05:47.328Z,98849.75
2022-10-21T17:09:01.221Z,98846.39
2022-10-21T17:12:15.752Z,98860.13
2022-10-21T17:15:27.610Z,98852.27
2022-10-21T17:18:39.667Z,98859.13
2022-10-21T17:21:52.048Z,98851.86
2022-10-21T17:25:03.662Z,98850.59
2022-10-21T17:28:15.460Z,98856.75
2022-10-21T17:31:30.577Z,98863.72
2022-10-21T17:34:43.588Z,98861.91
2022-10-21T17:37:57.160Z,98857.72
2022-10-21T17:41:09.188Z,98859.67
2022-10-21T17:44:21.070Z,98859.28
2022-10-21T17:47:33.560Z,98855.38
2022-10-21T17:50:45.815Z,98860.69
2022-10-21T17:53:59.292Z,98862.65
2022-10-21T17:57:12.330Z,98846.28
2022-10-21T18:00:24.584Z,98848.13
2022-10-21T18:03:36.451Z,98850.89
2022-10-21T18:06:48.296Z,98850.34
2022-10-21T18:10:00.032Z,98849.50
2022-10-21T18:13:11.953Z,98845.19
2022-10-21T18:16:25.985Z,98841.53
2022-10-21T18:19:37.911Z,98840.98
2022-10-21T18:22:49.924Z,98831.36
2022-10-21T18:26:04.120Z,98833.31
2022-10-21T18:29:16.438Z,98831.22
2022-10-21T18:32:28.260Z,98831.63
2022-10-21T18:35:40.432Z,98834.00
2022-10-21T18:38:52.445Z,98819.77
2022-10-21T18:42:04.241Z,98820.31
2022-10-21T18:45:17.415Z,98827.17
2022-10-21T18:48:29.480Z,98815.16
2022-10-21T18:51:41.225Z,98825.19
2022-10-21T18:54:53.185Z,98821.29
2022-10-21T18:58:05.164Z,98811.52
2022-10-21T19:01:18.956Z,98807.61
2022-10-21T19:04:31.115Z,98810.95
2022-10-21T19:07:43.125Z,98810.26
2022-10-21T19:10:55.863Z,98812.62
2022-10-21T19:14:11.201Z,98807.19
2022-10-21T19:17:21.555Z,98805.94
2022-10-21T19:20:34.091Z,98809.14
2022-10-21T19:23:46.851Z,98799.77
2022-10-21T19:27:02.427Z,98804.92
2022-10-21T19:30:16.911Z,98808.01
2022-10-21T19:33:28.811Z,98805.90
2022-10-21T19:36:40.735Z,98801.83
2022-10-21T19:39:52.976Z,98805.88
2022-10-21T19:43:04.807Z,98811.48
2022-10-21T19:46:23.637Z,98801.83
2022-10-21T19:49:34.957Z,98788.55
2022-10-21T19:52:47.415Z,98787.88
2022-10-21T19:55:59.737Z,98783.68
2022-10-21T19:59:13.030Z,98777.41
2022-10-21T20:02:25.068Z,98779.37
2022-10-21T20:05:37.499Z,98777.41
2022-10-21T20:08:50.036Z,98768.74
2022-10-21T20:12:02.515Z,98761.20
2022-10-21T20:15:15.692Z,98754.34
2022-10-21T20:18:27.763Z,98745.56
2022-10-21T20:21:40.896Z,98733.41
2022-10-21T20:24:54.812Z,98718.44
2022-10-21T20:28:06.519Z,98719.70
2022-10-21T20:31:20.486Z,98713.70
2022-10-21T20:34:34.091Z,98702.55
2022-10-21T20:37:46.908Z,98704.65
2022-10-21T20:41:06.721Z,98693.64
2022-10-21T20:44:21.980Z,98682.03
2022-10-21T20:47:33.899Z,98681.19
2022-10-21T20:50:45.887Z,98688.03
2022-10-21T20:54:00.240Z,98683.00
2022-10-21T20:57:12.274Z,98693.88
2022-10-21T21:00:24.630Z,98709.68
2022-10-21T21:03:38.182Z,98714.58
2022-10-21T21:06:53.282Z,98714.98
2022-10-21T21:10:05.105Z,98716.39
2022-10-21T21:13:16.965Z,98713.19
2022-10-21T21:16:29.938Z,98716.66
2022-10-21T21:19:41.908Z,98709.84
2022-10-21T21:22:53.675Z,98723.52
2022-10-21T21:26:12.901Z,98720.86
2022-10-21T21:29:24.853Z,98713.05
2022-10-21T21:32:36.880Z,98707.86
2022-10-21T21:35:49.186Z,98712.62
2022-10-21T21:39:01.350Z,98710.11
2022-10-21T21:42:13.225Z,98712.06
2022-10-21T21:45:24.926Z,98713.72
2022-10-21T21:48:38.704Z,98711.52
2022-10-21T21:51:50.504Z,98732.84
2022-10-21T21:55:03.274Z,98712.06
2022-10-21T21:58:15.731Z,98718.47
2022-10-21T22:01:30.418Z,98710.52
2022-10-21T22:04:43.451Z,98713.17
2022-10-21T22:07:55.277Z,98688.61
2022-10-21T22:11:14.676Z,98708.42
2022-10-21T22:14:26.389Z,98713.31
2022-10-21T22:17:38.623Z,98711.91
2022-10-21T22:20:51.015Z,98716.52
2022-10-21T22:24:03.234Z,98717.47
2022-10-21T22:27:14.997Z,98722.36
2022-10-21T22:30:27.029Z,98731.41
2022-10-21T22:33:40.370Z,98734.35
2022-10-21T22:36:52.363Z,98739.34
2022-10-21T22:40:04.148Z,98735.29
2022-10-21T22:43:16.040Z,98746.42
2022-10-21T22:46:35.266Z,98752.13
2022-10-21T22:49:43.577Z,98752.27
2022-10-21T22:52:55.349Z,98740.67
2022-10-21T22:56:07.143Z,98738.19
2022-10-21T22:59:18.794Z,98732.09
2022-10-21T23:02:32.123Z,98736.02
2022-10-21T23:05:44.167Z,98741.02
2022-10-21T23:08:56.096Z,98749.12
2022-10-21T23:12:08.263Z,98735.16
2022-10-21T23:15:20.197Z,98713.39
2022-10-21T23:18:32.172Z,98724.00
2022-10-21T23:21:44.441Z,98737.11
2022-10-21T23:24:56.252Z,98733.76
2022-10-21T23:28:09.872Z,98734.75
2022-10-21T23:31:22.056Z,98731.11
2022-10-21T23:34:34.125Z,98725.70
2022-10-21T23:37:45.817Z,98728.91
2022-10-21T23:40:58.117Z,98728.91
2022-10-21T23:44:09.921Z,98723.46
2022-10-21T23:47:21.568Z,98712.02
2022-10-21T23:50:34.557Z,98724.56
2022-10-21T23:53:46.337Z,98722.91
2022-10-21T23:56:58.529Z,98730.15
